x

Portland 12 Nm Southeast Of Portland,me (44007) Wave Buoy

3:50 - Thu 27th Nov 2014 All times are EST. -5 hours from GMT.

  • Sig Wave height 4.3ft
  • Swell Direction
  • Peak Period 11s
  • Average Period 7s
  • Wind
    11mph, 16mph gusts
  • Sea Temp 49°f
  • Air Temp 37°f
  • Sea Pressure 1014.2mb
  • Portland 12 Nm Southeast Of Portland,me
  • Portland 12 Nm Southeast Of Portland,me

More Historic Weather Station data

Upgrade to MSW Pro to gain access to the past 30 days of data for over 8000 Wavebouys and Weather Stations around the globe.

Join Pro

Comparision Forecast

View Surf forecast
   
jeu. 11/27 3:50 4.5ft 11s 7s 11 16 mph 1014.2mb 49f 37f
2:50 4.5ft 12s 7s 13 16 mph 1013.4mb 49f 37f
1:50 4ft 11s 7s 16 18 mph 1013.2mb 49f 36f
12:50 4.5ft 10s 7s 13 18 mph 1013mb 49f 36f
11:50 5ft 9s 7s 13 18 mph 1013mb 49f 35f
10:50 5ft 9s 7s 16 20 mph 1012.6mb 49f 35f
9:50 5.5ft 8s 7s 18 22 mph 1012mb 49f 34f
8:50 6ft 10s 6s 20 25 mph 1011.2mb 49f 34f
7:50 7ft 10s 6s 25 31 mph 1009.6mb 49f 34f
6:50 7ft 9s 6s 27 34 mph 1008.3mb 49f 34f
5:50 7ft 10s 6s 29 34 mph 1007.7mb 49f 34f
4:50 8ft 8s 6s 31 38 mph 1005.8mb 49f 35f
3:50 9ft 9s 6s 34 40 mph 1004.6mb 50f 34f
2:50 10ft 8s 6s 34 43 mph 1004mb 50f 35f
1:50 9ft 8s 6s 36 43 mph 1003.8mb 50f 36f
12:50 9ft 8s 6s 34 43 mph 1003.3mb 50f 36f
mer. 11/26 11:50 8ft 7s 5s 36 45 mph 1003.8mb 50f 36f
10:50 8ft 8s 5s 34 43 mph 1005.9mb 50f 36f
9:50 7.5ft 7s 5s 31 38 mph 1007.3mb 50f 36f
8:50 7ft 6s 5s 34 40 mph 1007.7mb 50f 35f
7:50 6ft 6s 5s 29 36 mph 1010.8mb 50f 36f
6:50 5ft 5s 5s 29 34 mph 1012.7mb 50f 36f
5:50 4.5ft 5s 4s 27 34 mph 1014.2mb 50f 36f
4:50 4ft 5s 4s 31 36 mph 1014.4mb 50f 36f
3:50 3.5ft 9s 4s 25 29 mph 1018mb 51f 36f
2:50 3.5ft 10s 4s 22 25 mph 1019.7mb 50f 36f
1:50 3ft 9s 4s 22 29 mph 1018.8mb 50f 36f
12:50 3ft 9s 4s 18 20 mph 1021.3mb 50f 35f
11:50 3.5ft 8s 5s 18 25 mph 1021.7mb 50f 39f
10:50 3ft 9s 5s 18 22 mph 1021mb 50f 43f
9:50 2.5ft 9s 5s 20 22 mph 1022.2mb 50f 43f
8:50 3ft 9s 6s 16 20 mph 1023.1mb 50f 44f
7:50 2.5ft 9s 6s 11 16 mph 1022.2mb 50f 45f
6:50 2.5ft 9s 6s 9
mph
1021.9mb 50f 45f
5:50 3ft 9s 5s 11 13 mph 1021.7mb 50f 45f
4:50 3.5ft 10s 5s 16 18 mph 1021.2mb 50f 46f
3:50 3.5ft 10s 5s 18 20 mph 1020.7mb 50f 47f
2:50 3ft 10s 5s 16 20 mph 1019.9mb 50f 47f
1:50 3.5ft 11s 6s 16 20 mph 1019.2mb 50f 49f
12:50 3ft 9s 6s 13 16 mph 1018.7mb 50f 49f
mar. 11/25 11:50 3.5ft 9s 6s 13 16 mph 1018.1mb 50f 49f
10:50 3.5ft 8s 6s 16 18 mph 1017.4mb 50f 50f
9:50 4ft 10s 6s 13 16 mph 1016.9mb 50f 50f
8:50 4ft 9s 6s 13 18 mph 1016.1mb 50f 51f
7:50 4ft 9s 6s 16 18 mph 1015.2mb 50f 51f
6:50 4.5ft 10s 6s 18 20 mph 1014.2mb 50f 53f
5:50 4ft 10s 6s 16 22 mph 1013.1mb 50f 54f
4:50 4.5ft 10s 6s 13 18 mph 1011.7mb 50f 54f
3:50 4.5ft 11s 6s 13 16 mph 1010.5mb 50f 55f
2:50 4.5ft 10s 6s 18 20 mph 1009.8mb 50f 56f
1:50 4.5ft 8s 6s 18 22 mph 1009.2mb 50f 57f
12:50 4.5ft 10s 6s 11 13 mph 1009.3mb 50f 55f
11:50 5ft 6s 6s 16
mph
1008.9mb 50f 54f
10:50 5ft 11s 5s 18 20 mph 1008.8mb 50f 54f
9:50 6ft 8s 6s 20 22 mph 1008.6mb 50f 54f
8:50 5.5ft 9s 5s 20 22 mph 1008.4mb 50f 54f
7:50 6ft 8s 5s 18 22 mph 1007.4mb 50f 53f
6:50 6ft 10s 6s 20 25 mph 1006.9mb 50f 54f
5:50 6ft 9s 6s 16 20 mph 1005.6mb 50f 53f
4:50 5.5ft 8s 6s 18 20 mph 1004.8mb 50f 54f
3:50 6ft 8s 6s 18 20 mph 1004.3mb 50f 54f
2:50 6ft 8s 6s 16 18 mph 1004.1mb 50f 55f
1:50 6.5ft 9s 6s 18 20 mph 1003.4mb 50f 55f
12:50 7ft 8s 6s 20 22 mph 1002.7mb 50f 55f
lun. 11/24 11:50 7ft 8s 6s 22 25 mph 1002.2mb 50f 55f
10:50 7ft 8s 6s 25 27 mph 1001.4mb 51f 55f
9:50 7ft 8s 6s 25 29 mph 1000.9mb 51f 55f
8:50 7ft 8s 6s 22 27 mph 1000.7mb 51f 56f
7:50 7.5ft 8s 6s 22 27 mph 1000.5mb 51f 55f
6:50 7ft 8s 6s 25 31 mph 1000.8mb 51f 56f
5:50 9ft 8s 6s 27 31 mph 1000.1mb 51f 56f
4:50 8ft 8s 6s 22 29 mph 999.8mb 51f 55f
3:50 8ft 8s 6s 22 29 mph 1000.3mb 51f 55f
2:50 9ft 8s 6s 25 29 mph 1000.7mb 51f 55f
1:50 8ft 8s 6s 25 31 mph 1001.5mb 51f 55f
12:50 9ft 8s 6s 29 36 mph 1002.2mb 51f 55f
11:50 10ft 7s 6s 31 38 mph 1003.2mb 51f 55f
10:50 8ft 6s 5s 36 43 mph 1004.2mb 51f 55f
9:50 6ft 5s 5s 34 40 mph 1006.8mb 51f 55f
8:50 4.5ft 4s 4s 29 36 mph 1008.8mb 51f 55f
7:50 2.5ft 4s 4s 22 27 mph 1011.9mb 51f 53f
6:50 2.5ft 4s 4s 20 22 mph 1013.2mb 50f 53f
5:50 2.5ft 5s 4s 13 16 mph 1014.8mb 50f 51f
4:50 2.5ft 4s 4s 16 20 mph 1016.2mb 50f 51f
3:50 2.5ft 5s 4s 13 16 mph 1016.8mb 50f 51f
2:50 2.5ft 4s 4s 11 13 mph 1017.5mb 50f 51f
1:50 2ft 7s 4s 11 13 mph 1018mb 50f 51f
12:50 2ft 7s 5s 9
mph
1018.4mb 50f 51f
dim. 11/23 11:50 2ft 8s 5s 11
mph
1019.4mb 50f 51f
10:50 2ft 5s 5s 7
mph
1019.4mb 50f 51f